Buoy 41613

sailwx.info

Track history (hours):
 
Tides and Currents Weather Stations Pressure Air Temp Water Temp Dewpoint Dewpoint Depression Visibility Wind Speed Wind Dir Waves Ship Positions

Drifting buoy 41613

Last reported at 2014-Sep-30 14:00 UTC. Time now 2014-Sep-30 18:08 UTC.
Position N 25°03' W 071°59'.

Water temperature 28.8 ° C

Date/timePositionNaut miles runAvg speedWind from/ knotsBaromVisibWave heightAir tempDewpointWater temp
2014-Sep-30 14:00N 25°03' W 071°59'0 0.0 28.8
2014-Sep-30 08:00N 25°03' W 071°59'0 0.0 28.8
2014-Sep-30 07:00N 25°03' W 071°59'0 0.0 28.8
2014-Sep-29 23:00N 25°03' W 071°59'10 1.1 29.2
2014-Sep-29 14:00N 25°06' W 072°09'0 0.0 29.1
2014-Sep-29 10:00N 25°06' W 072°09'0 0.0 28.8
2014-Sep-29 09:00N 25°06' W 072°09'0 0.0 28.8
2014-Sep-29 08:00N 25°06' W 072°09'41 6.8 28.8
2014-Sep-29 02:00N 25°21' W 072°51'0 0.0 28.8
2014-Sep-28 17:00N 25°21' W 072°51'0 0.0 28.9
2014-Sep-28 11:00N 25°21' W 072°51'0 0.0 28.8
2014-Sep-28 08:00N 25°21' W 072°51'0 0.0 28.8
2014-Sep-28 05:00N 25°21' W 072°51'0 0.0 28.8
2014-Sep-27 22:00N 25°21' W 072°51'0 0.0 28.9
2014-Sep-27 15:00N 25°21' W 072°51'0 0.0 28.8
2014-Sep-27 13:00N 25°21' W 072°51'14 4.8 28.8
2014-Sep-27 10:00N 25°32' W 073°01'0 0.0 28.8
2014-Sep-27 09:00N 25°32' W 073°01'0 0.0 28.8
2014-Sep-27 08:00N 25°32' W 073°01'0 0.0 28.8
2014-Sep-26 22:00N 25°32' W 073°01'0 0.0 28.9
2014-Sep-26 18:00N 25°32' W 073°01'0 0.0 28.9
2014-Sep-26 15:00N 25°32' W 073°01'6 0.5 28.8
2014-Sep-26 03:00N 25°37' W 072°57'0 0.0 28.8
2014-Sep-26 01:00N 25°37' W 072°57'0 0.0 28.9
2014-Sep-25 21:00N 25°37' W 072°57'0 0.0 29.0
2014-Sep-25 18:00N 25°37' W 072°57'0 0.0 29.0
2014-Sep-25 14:00N 25°37' W 072°57'0 0.0 28.8
2014-Sep-25 11:00N 25°37' W 072°57'0 0.0 28.8
2014-Sep-25 10:00N 25°37' W 072°57'0 0.0 28.8
2014-Sep-25 09:00N 25°37' W 072°57'41 1.8 28.8
2014-Sep-24 10:00N 25°25' W 072°14'0 0.0 28.8
2014-Sep-24 09:00N 25°25' W 072°14'0 0.0 28.8
2014-Sep-24 04:00N 25°25' W 072°14'0 0.0 28.9
2014-Sep-22 21:00N 25°25' W 072°14'0 0.0 29.4
2014-Sep-22 18:00N 25°25' W 072°14'0 0.0 29.3
2014-Sep-22 17:00N 25°25' W 072°14'0 0.0 29.2
2014-Sep-22 15:00N 25°25' W 072°14'0 0.0 29.0
2014-Sep-22 13:00N 25°25' W 072°14'3 0.4 28.8
2014-Sep-22 04:00N 25°21' W 072°13'2 0.7 28.9
2014-Sep-22 01:00N 25°19' W 072°13'0 0.0 28.9
2014-Sep-21 22:00N 25°19' W 072°13'0 0.0 29.0
2014-Sep-21 21:00N 25°19' W 072°13'21 5.4 29.1
2014-Sep-21 17:00N 25°08' W 072°34'0 0.0 29.0
2014-Sep-21 11:00N 25°08' W 072°34'0 0.0 28.7
2014-Sep-21 09:00N 25°08' W 072°34'0 0.0 28.7
2014-Sep-21 08:00N 25°08' W 072°34'0 0.0 28.7
2014-Sep-21 07:00N 25°08' W 072°34'0 0.0 28.7
2014-Sep-21 05:00N 25°08' W 072°34'0 0.0 28.8
2014-Sep-21 01:00N 25°08' W 072°34'0 0.0 28.8
2014-Sep-20 21:00N 25°08' W 072°34'0 0.0 28.9
2014-Sep-20 17:00N 25°08' W 072°34'   28.9
Track history (hours):
 
Tides and Currents Weather Stations Pressure Air Temp Water Temp Dewpoint Dewpoint Depression Visibility Wind Speed Wind Dir Waves Ship Positions

Drifting buoy 41613

Last reported at 2014-Sep-30 14:00 UTC. Time now 2014-Sep-30 18:08 UTC.
Position N 25°03' W 071°59'.

Water temperature 28.8 ° C

Date/timePositionNaut miles runAvg speedWind from/ knotsBaromVisibWave heightAir tempDewpointWater temp
2014-Sep-30 14:00N 25°03' W 071°59'0 0.0 28.8
2014-Sep-30 08:00N 25°03' W 071°59'0 0.0 28.8
2014-Sep-30 07:00N 25°03' W 071°59'0 0.0 28.8
2014-Sep-29 23:00N 25°03' W 071°59'10 1.1 29.2
2014-Sep-29 14:00N 25°06' W 072°09'0 0.0 29.1
2014-Sep-29 10:00N 25°06' W 072°09'0 0.0 28.8
2014-Sep-29 09:00N 25°06' W 072°09'0 0.0 28.8
2014-Sep-29 08:00N 25°06' W 072°09'41 6.8 28.8
2014-Sep-29 02:00N 25°21' W 072°51'0 0.0 28.8
2014-Sep-28 17:00N 25°21' W 072°51'0 0.0 28.9
2014-Sep-28 11:00N 25°21' W 072°51'0 0.0 28.8
2014-Sep-28 08:00N 25°21' W 072°51'0 0.0 28.8
2014-Sep-28 05:00N 25°21' W 072°51'0 0.0 28.8
2014-Sep-27 22:00N 25°21' W 072°51'0 0.0 28.9
2014-Sep-27 15:00N 25°21' W 072°51'0 0.0 28.8
2014-Sep-27 13:00N 25°21' W 072°51'14 4.8 28.8
2014-Sep-27 10:00N 25°32' W 073°01'0 0.0 28.8
2014-Sep-27 09:00N 25°32' W 073°01'0 0.0 28.8
2014-Sep-27 08:00N 25°32' W 073°01'0 0.0 28.8
2014-Sep-26 22:00N 25°32' W 073°01'0 0.0 28.9
2014-Sep-26 18:00N 25°32' W 073°01'0 0.0 28.9
2014-Sep-26 15:00N 25°32' W 073°01'6 0.5 28.8
2014-Sep-26 03:00N 25°37' W 072°57'0 0.0 28.8
2014-Sep-26 01:00N 25°37' W 072°57'0 0.0 28.9
2014-Sep-25 21:00N 25°37' W 072°57'0 0.0 29.0
2014-Sep-25 18:00N 25°37' W 072°57'0 0.0 29.0
2014-Sep-25 14:00N 25°37' W 072°57'0 0.0 28.8
2014-Sep-25 11:00N 25°37' W 072°57'0 0.0 28.8
2014-Sep-25 10:00N 25°37' W 072°57'0 0.0 28.8
2014-Sep-25 09:00N 25°37' W 072°57'41 1.8 28.8
2014-Sep-24 10:00N 25°25' W 072°14'0 0.0 28.8
2014-Sep-24 09:00N 25°25' W 072°14'0 0.0 28.8
2014-Sep-24 04:00N 25°25' W 072°14'0 0.0 28.9
2014-Sep-22 21:00N 25°25' W 072°14'0 0.0 29.4
2014-Sep-22 18:00N 25°25' W 072°14'0 0.0 29.3
2014-Sep-22 17:00N 25°25' W 072°14'0 0.0 29.2
2014-Sep-22 15:00N 25°25' W 072°14'0 0.0 29.0
2014-Sep-22 13:00N 25°25' W 072°14'3 0.4 28.8
2014-Sep-22 04:00N 25°21' W 072°13'2 0.7 28.9
2014-Sep-22 01:00N 25°19' W 072°13'0 0.0 28.9
2014-Sep-21 22:00N 25°19' W 072°13'0 0.0 29.0
2014-Sep-21 21:00N 25°19' W 072°13'21 5.4 29.1
2014-Sep-21 17:00N 25°08' W 072°34'0 0.0 29.0
2014-Sep-21 11:00N 25°08' W 072°34'0 0.0 28.7
2014-Sep-21 09:00N 25°08' W 072°34'0 0.0 28.7
2014-Sep-21 08:00N 25°08' W 072°34'0 0.0 28.7
2014-Sep-21 07:00N 25°08' W 072°34'0 0.0 28.7
2014-Sep-21 05:00N 25°08' W 072°34'0 0.0 28.8
2014-Sep-21 01:00N 25°08' W 072°34'0 0.0 28.8
2014-Sep-20 21:00N 25°08' W 072°34'0 0.0 28.9
2014-Sep-20 17:00N 25°08' W 072°34'   28.9

Dump ship's entire track history